• Join FlightAware (Why Join?)
  • Login
  • US Flag 
06:10PM EDT


 

Airport Tracker/Info


-or-


 

Live Flight TrackerFlight Track Log ✈ SYN564 ✈ 25-Jun-2013 ✈ CYYC - CYEG

Flight Track Log - Related Links

Times and Time Zones

All times are in EDT time to prevent confusion due to time zone crossing. See the SYN564 flight status page for this flight to view local times or setup timezone preferences in your user account.

Time Position Orientation Groundspeed Altitude Reporting Facility
EDT Latitude Longitude Course Direction KTS MPH feet Rate Location/Type
07:54PM 51.1000 -114.0333 North 170 196 5,000  Level Edmonton Center
07:55PM 51.1667 -114.0500 351° North 220 253 7,900 2,820 Climbing Edmonton Center
07:56PM 51.2333 -114.0667 351° North 260 299 10,700 2,820 Climbing Edmonton Center
07:57PM 51.3167 -114.0500 North 300 345 13,600 2,700 Climbing Edmonton Center
07:58PM 51.4000 -114.0667 353° North 310 357 16,100 2,460 Climbing Edmonton Center
07:59PM 51.6196 -113.9226 North  Level Estimated
07:59PM 51.4833 -114.0667 360° North 330 380 18,600  Level Edmonton Center
08:00PM 51.5833 -114.0833 354° North 340 391 20,800 1,980 Climbing Edmonton Center
08:01PM 51.6833 -114.1000 354° North 350 403 22,600 1,500 Climbing Edmonton Center
08:02PM 51.8000 -114.1000 360° North 370 426 23,900 1,200 Climbing Edmonton Center
08:03PM 51.9000 -114.1167 354° North 380 437 25,000 540 Climbing Edmonton Center
08:04PM 52.0167 -114.1167 360° North 410 472 25,000 -360 Level Edmonton Center
08:05PM 52.1333 -114.1167 360° North 420 483 24,300 -1,080 Descending Edmonton Center
08:06PM 52.2333 -114.0833 12° North 410 472 22,900 -1,500 Descending Edmonton Center
08:07PM 52.3500 -114.0500 10° North 400 460 21,400 -1,680 Descending Edmonton Center
08:08PM 52.4667 -114.0000 15° North 380 437 19,600 -1,980 Descending Edmonton Center
08:09PM 52.5500 -113.9833 North 340 391 17,500 -1,800 Descending Edmonton Center
08:10PM 52.6333 -113.9500 14° North 320 368 16,000 -2,100 Descending Edmonton Center
08:11PM 52.7167 -113.9167 14° North 310 357 13,300 -2,280 Descending Edmonton Center
08:12PM 52.7833 -113.8500 31° Northeast 290 334 11,500 -1,620 Descending Edmonton Center
08:13PM 52.8500 -113.7667 37° Northeast 320 368 10,100 -1,500 Descending Edmonton Center
08:14PM 52.9167 -113.6667 42° Northeast 310 357 8,600 -1,440 Descending Edmonton Center
08:15PM 52.9667 -113.5667 50° Northeast 280 322 7,300 -1,380 Descending Edmonton Center
08:16PM 53.0333 -113.5000 31° Northeast 270 311 5,900 -1,260 Descending Edmonton Center
08:17PM 53.0833 -113.4333 39° Northeast 240 276 4,800 -900 Descending Edmonton Center
08:18PM 53.1333 -113.4167 11° North 200 230 4,100 -360 Descending Edmonton Center
08:19PM 53.1833 -113.4667 329° Northwest 180 207 4,100 -300 Level Edmonton Center
08:20PM 53.2167 -113.5167 318° Northwest 180 207 3,500 -780 Descending Edmonton Center
08:21PM 53.2500 -113.5667 318° Northwest 160 184 2,600 -600 Descending Edmonton Center
08:22PM 53.2833 -113.6000 329° Northwest 140 161 2,400 -240 Descending Edmonton Center